ELNO2: N. Canadian River, El Reno, OK

Data processed at Sat Apr 18 23:24:49 2015 Central Daylight Time


All information presented herein is the property of the government of the United States of America and may be revised or deleted at any time without prior notice.
Dissemination of this information without the expressed written consent of the Public Affairs Office, Tulsa District U.S. Army Corps of Engineers is strictly prohibited.
These data are gathered electronically and, as presented, have not undergone any form of quality control. These data are not guaranteed to be valid or correct.
Go to home page.
Go to station list.
Go to station map.

Upstream stations:

Downstream station: Previous Day
Next Day
Current Day

Display graphics.
Display DCP transmissions.


    
    SHEF ID:       ELNO2     N. Canadian River, El Reno, OK
    STATION TYPE:  STREAM GAGE
    Regulation Limits:  Stage =   10.00, Flow =    1978
    
                   PRECIP     STAGE  STAGE(2)  RIV-FLOW  WTR-TEMP   CONDUCT  BAT-LOAD
                   INCHES      FEET      FEET       CFS     DEG-C     US/CM     VOLTS
                     GOES      GOES      GOES      GOES      GOES      GOES      GOES
       (Cen)
    04/18 01:00      0.00      2.46      3.63        29     17.36       989     12.60
    04/18 02:00      0.00      2.46      3.63        29     17.26       984     12.60
    04/18 03:00      0.00      2.48      3.62        28     17.12       987     12.60
    04/18 04:00      0.00      2.44      3.63        29     16.94       997     12.60
    04/18 05:00      0.00      2.47      3.73        36     16.77      1014     12.60
    04/18 06:00      0.00      2.48      3.81        43     16.60      1031     12.60
    04/18 07:00      0.00      2.46      3.85        46     16.38      1047     12.60
    04/18 08:00      0.00      2.82      3.88        49     16.27      1057     12.60
    04/18 09:00      0.00      3.18      3.88        49     16.41      1141     13.12
    04/18 10:00      0.00      2.87      3.90        51     16.95      1227     13.53
    04/18 11:00      0.00      2.44      3.90        51     17.79      1291     13.53
    04/18 12:00      0.00      2.35      3.89        50     18.11      1334     13.48
    04/18 13:00      0.00      2.70      3.88        49     18.94      1334     13.48
    04/18 14:00      0.00      2.66      3.88        49     20.03      1327     13.36
    04/18 15:00      0.00      2.56      3.88        49     21.10      1323     13.42
    04/18 16:00      0.00      2.47      3.86        47     21.50      1313     13.36
    04/18 17:00      0.00      2.57      3.84        46     22.01      1297     13.36
    04/18 18:00      0.00      2.49      3.80        42     22.39      1268     13.48
    04/18 19:00      0.00      2.33      3.79        41     22.16      1244     11.77
    04/18 20:00      0.00      2.30      3.81        43     22.03      1237     12.89
    04/18 21:00      0.00      2.32      3.80        42     21.73      1224     12.89
    04/18 22:00      0.00      2.27      3.77        40     21.24      1184     12.83
    04/18 23:00      0.00      2.42      3.73        36     20.72      1148     12.83
    04/19 00:00      ----      ----      ----      ----      ----      ----      ----